createdAt,value
2018-04-25T00:01:40.888Z,100501.74
2018-04-25T00:04:09.155Z,100502.63
2018-04-25T00:06:38.188Z,100499.88
2018-04-25T00:09:06.474Z,100489.02
2018-04-25T00:11:34.733Z,100487.70
2018-04-25T00:14:03.796Z,100487.12
2018-04-25T00:16:32.054Z,100485.34
2018-04-25T00:19:00.316Z,100485.34
2018-04-25T00:21:29.365Z,100475.70
2018-04-25T00:23:57.631Z,100465.97
2018-04-25T00:26:26.662Z,100461.60
2018-04-25T00:28:54.935Z,100462.89
2018-04-25T00:31:23.209Z,100462.23
2018-04-25T00:33:52.233Z,100462.76
2018-04-25T00:36:20.495Z,100458.76
2018-04-25T00:38:48.755Z,100451.38
2018-04-25T00:41:17.059Z,100455.55
2018-04-25T00:43:45.333Z,100452.86
2018-04-25T00:46:13.657Z,100455.13
2018-04-25T00:48:42.696Z,100457.16
2018-04-25T00:51:10.994Z,100455.36
2018-04-25T00:53:39.237Z,100444.49
2018-04-25T00:56:07.511Z,100438.06
2018-04-25T00:58:35.825Z,100432.81
2018-04-25T01:01:04.095Z,100426.34
2018-04-25T01:03:32.356Z,100429.33
2018-04-25T01:06:00.665Z,100424.48
2018-04-25T01:08:28.923Z,100417.98
2018-04-25T01:10:57.192Z,100416.73
2018-04-25T01:13:26.225Z,100418.20
2018-04-25T01:15:54.503Z,100417.91
2018-04-25T01:18:22.764Z,100420.63
2018-04-25T01:20:51.186Z,100420.72
2018-04-25T01:23:27.001Z,100415.17
2018-04-25T01:26:01.371Z,100424.03
2018-04-25T01:35:03.809Z,100431.08
2018-04-25T01:37:46.676Z,100429.72
2018-04-25T01:40:15.766Z,100431.52
2018-04-25T01:42:46.596Z,100421.85
2018-04-25T01:48:34.295Z,100429.83
2018-04-25T01:51:01.764Z,100438.20
2018-04-25T01:53:47.765Z,100420.37
2018-04-25T01:56:33.498Z,100407.55
2018-04-25T01:59:19.171Z,100411.94
2018-04-25T02:01:46.684Z,100411.78
2018-04-25T02:04:14.976Z,100412.70
2018-04-25T02:06:43.275Z,100409.91
2018-04-25T02:09:11.526Z,100409.81
2018-04-25T02:11:40.545Z,100419.98
2018-04-25T02:14:08.824Z,100416.51
2018-04-25T02:16:37.857Z,100416.41
2018-04-25T02:19:06.107Z,100419.33
2018-04-25T02:21:34.401Z,100414.57
2018-04-25T02:24:02.660Z,100415.92
2018-04-25T02:26:30.916Z,100411.36
2018-04-25T02:28:59.184Z,100411.29
2018-04-25T02:31:28.217Z,100398.66
2018-04-25T02:33:56.499Z,100388.16
2018-04-25T02:36:25.544Z,100392.59
2018-04-25T02:38:53.886Z,100387.14
2018-04-25T02:41:22.908Z,100395.86
2018-04-25T02:43:52.023Z,100393.67
2018-04-25T02:46:20.320Z,100381.03
2018-04-25T02:48:49.622Z,100389.34
2018-04-25T02:51:18.645Z,100385.53
2018-04-25T02:53:46.954Z,100391.53
2018-04-25T02:56:15.257Z,100392.19
2018-04-25T02:58:43.559Z,100383.23
2018-04-25T03:01:11.804Z,100381.56
2018-04-25T03:03:40.063Z,100383.00
2018-04-25T03:06:09.130Z,100389.78
2018-04-25T03:08:37.388Z,100382.63
2018-04-25T03:11:05.661Z,100389.69
2018-04-25T03:13:34.696Z,100382.21
2018-04-25T03:16:02.971Z,100386.67
2018-04-25T03:18:31.220Z,100389.32
2018-04-25T03:20:59.504Z,100384.23
2018-04-25T03:23:27.770Z,100391.68
2018-04-25T03:25:56.032Z,100388.05
2018-04-25T03:28:24.299Z,100391.81
2018-04-25T03:30:53.324Z,100386.53
2018-04-25T03:33:21.579Z,100387.75
2018-04-25T03:35:49.851Z,100394.20
2018-04-25T03:38:18.111Z,100391.77
2018-04-25T03:40:46.388Z,100390.39
2018-04-25T03:43:14.669Z,100388.35
2018-04-25T03:45:42.943Z,100383.69
2018-04-25T03:48:12.058Z,100378.74
2018-04-25T03:50:41.082Z,100383.27
2018-04-25T03:53:09.341Z,100387.91
2018-04-25T03:55:38.363Z,100384.70
2018-04-25T03:58:07.395Z,100387.88
2018-04-25T04:00:35.676Z,100390.05
2018-04-25T04:03:03.923Z,100390.75
2018-04-25T04:05:32.253Z,100390.58
2018-04-25T04:08:01.277Z,100396.34
2018-04-25T04:10:29.537Z,100402.05
2018-04-25T04:12:58.644Z,100399.03
2018-04-25T04:15:26.831Z,100396.50
2018-04-25T04:17:55.871Z,100406.13
2018-04-25T04:20:24.179Z,100409.19
2018-04-25T04:22:52.432Z,100405.25
2018-04-25T04:25:20.729Z,100398.23
2018-04-25T04:27:49.775Z,100406.35
2018-04-25T04:30:18.025Z,100400.52
2018-04-25T04:32:46.297Z,100410.25
2018-04-25T04:35:15.415Z,100415.56
2018-04-25T04:37:43.673Z,100405.81
2018-04-25T04:40:11.932Z,100410.56
2018-04-25T04:42:40.210Z,100410.26
2018-04-25T04:45:08.465Z,100410.91
2018-04-25T04:47:37.745Z,100404.90
2018-04-25T04:50:06.020Z,100406.70
2018-04-25T04:52:34.277Z,100403.77
2018-04-25T04:55:02.554Z,100408.06
2018-04-25T04:57:31.593Z,100406.87
2018-04-25T04:59:59.852Z,100390.33
2018-04-25T05:02:28.898Z,100400.69
2018-04-25T05:04:57.171Z,100411.73
2018-04-25T05:07:25.439Z,100406.73
2018-04-25T05:09:54.474Z,100402.77
2018-04-25T05:12:22.748Z,100404.05
2018-04-25T05:14:51.064Z,100404.37
2018-04-25T05:17:19.324Z,100405.05
2018-04-25T05:19:47.634Z,100409.79
2018-04-25T05:22:15.976Z,100402.77
2018-04-25T05:24:44.287Z,100422.00
2018-04-25T05:30:12.321Z,100434.26
2018-04-25T05:32:40.601Z,100429.64
2018-04-25T05:35:09.624Z,100436.69
2018-04-25T05:37:37.916Z,100452.91
2018-04-25T05:40:06.166Z,100466.88
2018-04-25T05:42:34.427Z,100463.76
2018-04-25T05:45:02.884Z,100463.08
2018-04-25T05:47:31.183Z,100472.83
2018-04-25T05:49:59.465Z,100466.97
2018-04-25T05:52:27.733Z,100463.44
2018-04-25T05:54:56.778Z,100466.09
2018-04-25T05:57:25.046Z,100468.86
2018-04-25T05:59:54.075Z,100471.52
2018-04-25T06:02:22.325Z,100472.80
2018-04-25T06:04:50.604Z,100475.20
2018-04-25T06:07:18.868Z,100481.19
2018-04-25T06:09:47.133Z,100484.83
2018-04-25T06:12:15.403Z,100495.07
2018-04-25T06:14:43.671Z,100500.84
2018-04-25T06:17:12.718Z,100497.97
2018-04-25T06:19:42.873Z,100499.38
2018-04-25T06:22:11.131Z,100508.70
2018-04-25T06:24:40.155Z,100504.09
2018-04-25T06:27:08.427Z,100514.70
2018-04-25T06:29:36.691Z,100515.69
2018-04-25T06:32:04.947Z,100519.41
2018-04-25T06:34:33.213Z,100519.91
2018-04-25T06:37:01.481Z,100522.36
2018-04-25T06:39:29.835Z,100533.48
2018-04-25T06:41:58.020Z,100536.73
2018-04-25T06:44:26.297Z,100546.02
2018-04-25T06:46:54.544Z,100547.48
2018-04-25T06:49:22.804Z,100545.82
2018-04-25T06:51:51.091Z,100541.92
2018-04-25T06:54:19.373Z,100541.66
2018-04-25T06:56:47.675Z,100545.78
2018-04-25T06:59:15.960Z,100539.93
2018-04-25T07:01:44.263Z,100543.83
2018-04-25T07:04:12.534Z,100545.75
2018-04-25T07:06:40.812Z,100539.52
2018-04-25T07:09:09.064Z,100538.19
2018-04-25T07:11:37.329Z,100536.80
2018-04-25T07:14:06.420Z,100544.36
2018-04-25T07:16:34.620Z,100549.55
2018-04-25T07:19:03.640Z,100549.30
2018-04-25T07:21:31.912Z,100547.31
2018-04-25T07:24:00.972Z,100557.98
2018-04-25T07:26:29.235Z,100551.66
2018-04-25T07:28:57.512Z,100550.11
2018-04-25T07:31:26.528Z,100558.20
2018-04-25T07:33:54.844Z,100562.55
2018-04-25T07:36:23.100Z,100567.78
2018-04-25T07:38:52.125Z,100557.95
2018-04-25T07:41:20.388Z,100569.88
2018-04-25T07:43:49.498Z,100570.43
2018-04-25T07:46:17.853Z,100579.22
2018-04-25T07:48:46.164Z,100572.69
2018-04-25T07:51:15.568Z,100571.34
2018-04-25T07:53:43.849Z,100576.77
2018-04-25T07:56:12.125Z,100570.67
2018-04-25T07:58:40.388Z,100578.36
2018-04-25T08:01:08.652Z,100577.14
2018-04-25T08:03:37.671Z,100579.67
2018-04-25T08:06:06.781Z,100575.98
2018-04-25T08:08:34.973Z,100573.78
2018-04-25T08:11:03.233Z,100575.95
2018-04-25T08:13:49.182Z,100582.50
2018-04-25T08:16:35.007Z,100580.04
2018-04-25T08:19:20.889Z,100576.86
2018-04-25T08:21:49.167Z,100581.92
2018-04-25T08:24:17.432Z,100574.66
2018-04-25T08:26:45.719Z,100589.66
2018-04-25T08:29:13.977Z,100590.29
2018-04-25T08:31:42.235Z,100601.31
2018-04-25T08:34:10.583Z,100606.59
2018-04-25T08:36:38.784Z,100608.33
2018-04-25T08:39:07.824Z,100617.28
2018-04-25T08:41:36.102Z,100624.17
2018-04-25T08:44:05.133Z,100636.87
2018-04-25T08:46:33.379Z,100662.24
2018-04-25T08:49:02.408Z,100662.49
2018-04-25T08:51:30.708Z,100675.37
2018-04-25T08:53:58.946Z,100662.41
2018-04-25T08:56:27.212Z,100662.03
2018-04-25T08:58:55.463Z,100667.99
2018-04-25T09:01:24.480Z,100670.70
2018-04-25T09:03:52.742Z,100682.88
2018-04-25T09:06:21.771Z,100675.62
2018-04-25T09:08:50.813Z,100686.70
2018-04-25T09:11:19.115Z,100686.12
2018-04-25T09:13:47.410Z,100685.78
2018-04-25T09:16:15.709Z,100690.36
2018-04-25T09:18:44.009Z,100696.62
2018-04-25T09:21:12.264Z,100686.75
2018-04-25T09:23:40.530Z,100680.14
2018-04-25T09:26:08.805Z,100674.87
2018-04-25T09:28:37.837Z,100677.34
2018-04-25T09:31:06.084Z,100677.48
2018-04-25T09:33:34.370Z,100681.19
2018-04-25T09:36:02.620Z,100686.69
2018-04-25T09:38:30.894Z,100685.53
2018-04-25T09:40:59.165Z,100695.17
2018-04-25T09:43:28.195Z,100697.11
2018-04-25T09:45:56.490Z,100700.89
2018-04-25T09:48:25.495Z,100707.14
2018-04-25T09:50:53.750Z,100703.48
2018-04-25T09:53:22.774Z,100708.51
2018-04-25T09:55:51.815Z,100711.81
2018-04-25T09:58:20.081Z,100717.47
2018-04-25T10:00:54.548Z,100717.19
2018-04-25T10:03:23.719Z,100722.73
2018-04-25T10:05:52.734Z,100722.70
2018-04-25T10:08:21.035Z,100720.52
2018-04-25T10:10:49.295Z,100709.69
2018-04-25T10:13:18.336Z,100723.14
2018-04-25T10:15:46.616Z,100712.92
2018-04-25T10:18:16.239Z,100719.05
2018-04-25T10:20:44.628Z,100718.94
2018-04-25T10:23:12.914Z,100716.73
2018-04-25T10:25:42.110Z,100716.05
2018-04-25T10:28:10.296Z,100717.03
2018-04-25T10:30:39.328Z,100723.19
2018-04-25T10:33:07.575Z,100720.00
2018-04-25T10:35:35.856Z,100726.73
2018-04-25T10:38:05.137Z,100727.89
2018-04-25T10:40:33.578Z,100718.59
2018-04-25T10:43:01.775Z,100719.88
2018-04-25T10:45:30.833Z,100728.45
2018-04-25T10:47:59.097Z,100727.15
2018-04-25T10:50:27.371Z,100736.59
2018-04-25T10:52:56.396Z,100744.72
2018-04-25T10:55:24.689Z,100737.05
2018-04-25T10:57:53.697Z,100736.55
2018-04-25T11:00:21.967Z,100733.04
2018-04-25T11:02:51.000Z,100729.79
2018-04-25T11:05:19.261Z,100745.61
2018-04-25T11:07:47.537Z,100738.51
2018-04-25T11:10:15.856Z,100728.37
2018-04-25T11:12:44.891Z,100732.25
2018-04-25T11:15:13.180Z,100727.92
2018-04-25T11:17:41.429Z,100722.11
2018-04-25T11:20:10.452Z,100723.27
2018-04-25T11:22:38.789Z,100730.48
2018-04-25T11:25:06.977Z,100729.63
2018-04-25T11:27:35.255Z,100718.79
2018-04-25T11:30:03.520Z,100718.95
2018-04-25T11:32:32.053Z,100719.95
2018-04-25T11:35:00.650Z,100721.93
2018-04-25T11:37:29.045Z,100714.23
2018-04-25T11:39:58.126Z,100714.53
2018-04-25T11:42:26.376Z,100712.94
2018-04-25T11:44:54.643Z,100727.19
2018-04-25T11:47:22.901Z,100733.67
2018-04-25T11:49:51.184Z,100738.49
2018-04-25T11:52:19.434Z,100733.33
2018-04-25T11:54:47.702Z,100750.17
2018-04-25T11:57:15.963Z,100733.36
2018-04-25T11:59:44.303Z,100737.45
2018-04-25T12:02:12.528Z,100729.80
2018-04-25T12:04:40.798Z,100730.43
2018-04-25T12:07:09.831Z,100733.47
2018-04-25T12:09:38.082Z,100724.20
2018-04-25T12:12:07.100Z,100735.78
2018-04-25T12:14:36.150Z,100740.73
2018-04-25T12:17:04.399Z,100742.61
2018-04-25T12:19:33.434Z,100749.59
2018-04-25T12:22:01.704Z,100744.36
2018-04-25T12:24:29.959Z,100755.05
2018-04-25T12:26:58.229Z,100757.84
2018-04-25T12:29:26.503Z,100759.39
2018-04-25T12:31:54.782Z,100765.87
2018-04-25T12:34:23.039Z,100766.44
2018-04-25T12:36:52.067Z,100765.50
2018-04-25T12:39:20.325Z,100773.48
2018-04-25T12:41:48.650Z,100755.69
2018-04-25T12:44:16.952Z,100757.62
2018-04-25T12:46:45.244Z,100760.64
2018-04-25T12:49:13.484Z,100762.33
2018-04-25T12:51:41.744Z,100764.22
2018-04-25T12:54:09.999Z,100759.21
2018-04-25T12:56:38.260Z,100762.98
2018-04-25T12:59:07.356Z,100768.13
2018-04-25T13:01:35.641Z,100778.28
2018-04-25T13:04:03.878Z,100783.62
2018-04-25T13:06:32.144Z,100780.05
2018-04-25T13:09:01.192Z,100784.70
2018-04-25T13:11:29.453Z,100786.84
2018-04-25T13:13:58.488Z,100793.42
2018-04-25T13:16:26.757Z,100791.41
2018-04-25T13:18:55.065Z,100785.27
2018-04-25T13:21:23.346Z,100790.00
2018-04-25T13:23:51.629Z,100781.35
2018-04-25T13:26:19.896Z,100784.13
2018-04-25T13:28:49.681Z,100786.61
2018-04-25T13:31:17.955Z,100786.70
2018-04-25T13:33:46.400Z,100782.02
2018-04-25T13:36:14.711Z,100778.21
2018-04-25T13:38:42.955Z,100775.64
2018-04-25T13:41:11.217Z,100772.54
2018-04-25T13:43:39.497Z,100782.27
2018-04-25T13:46:07.751Z,100768.99
2018-04-25T13:48:36.779Z,100771.41
2018-04-25T13:51:05.097Z,100781.86
2018-04-25T13:53:33.371Z,100779.39
2018-04-25T13:56:01.620Z,100776.80
2018-04-25T13:58:29.906Z,100775.67
2018-04-25T14:00:58.156Z,100768.06
2018-04-25T14:03:26.412Z,100765.53
2018-04-25T14:05:55.441Z,100769.64
2018-04-25T14:08:23.725Z,100770.95
2018-04-25T14:10:51.978Z,100767.61
2018-04-25T14:13:20.267Z,100772.81
2018-04-25T14:15:48.540Z,100765.50
2018-04-25T14:18:16.817Z,100774.16
2018-04-25T14:20:45.127Z,100780.67
2018-04-25T14:23:13.398Z,100788.58
2018-04-25T14:25:41.648Z,100795.80
2018-04-25T14:28:09.932Z,100791.36
2018-04-25T14:30:38.196Z,100799.13
2018-04-25T14:33:06.511Z,100795.28
2018-04-25T14:35:34.723Z,100794.25
2018-04-25T14:38:02.988Z,100790.45
2018-04-25T14:40:31.251Z,100794.94
2018-04-25T14:42:59.541Z,100793.80
2018-04-25T14:45:27.813Z,100795.03
2018-04-25T14:47:56.059Z,100795.16
2018-04-25T14:50:24.332Z,100792.44
2018-04-25T14:52:52.600Z,100794.13
2018-04-25T14:55:20.851Z,100783.21
2018-04-25T14:57:49.132Z,100789.67
2018-04-25T15:00:17.399Z,100780.75
2018-04-25T15:02:46.517Z,100777.89
2018-04-25T15:05:14.860Z,100780.92
2018-04-25T15:07:43.115Z,100785.21
2018-04-25T15:10:11.393Z,100790.48
2018-04-25T15:12:39.689Z,100786.20
2018-04-25T15:15:07.936Z,100786.30
2018-04-25T15:17:36.189Z,100774.03
2018-04-25T15:20:04.494Z,100772.33
2018-04-25T15:22:32.742Z,100771.54
2018-04-25T15:25:01.013Z,100761.86
2018-04-25T15:27:30.048Z,100763.29
2018-04-25T15:29:58.299Z,100754.52
2018-04-25T15:32:27.337Z,100750.52
2018-04-25T15:34:55.616Z,100754.98
2018-04-25T15:37:23.876Z,100759.61
2018-04-25T15:39:52.204Z,100752.78
2018-04-25T15:42:20.467Z,100753.30
2018-04-25T15:44:49.487Z,100747.83
2018-04-25T15:47:18.551Z,100752.84
2018-04-25T15:49:46.901Z,100739.59
2018-04-25T15:52:15.184Z,100725.84
2018-04-25T15:54:43.487Z,100743.03
2018-04-25T15:57:11.766Z,100743.86
2018-04-25T15:59:40.065Z,100743.52
2018-04-25T16:02:08.333Z,100747.67
2018-04-25T16:04:37.363Z,100734.12
2018-04-25T16:07:05.642Z,100758.67
2018-04-25T16:09:34.664Z,100767.92
2018-04-25T16:12:02.940Z,100769.05
2018-04-25T16:14:31.196Z,100777.65
2018-04-25T16:16:59.526Z,100776.33
2018-04-25T16:19:27.808Z,100766.34
2018-04-25T16:21:56.842Z,100769.32
2018-04-25T16:24:25.114Z,100762.64
2018-04-25T16:26:53.384Z,100766.69
2018-04-25T16:29:22.421Z,100773.45
2018-04-25T16:31:50.703Z,100771.61
2018-04-25T16:34:19.013Z,100774.34
2018-04-25T16:36:47.292Z,100781.39
2018-04-25T16:39:15.556Z,100776.20
2018-04-25T16:41:44.737Z,100772.43
2018-04-25T16:44:13.004Z,100770.32
2018-04-25T16:46:41.270Z,100768.52
2018-04-25T16:49:09.580Z,100765.84
2018-04-25T16:51:37.841Z,100758.37
2018-04-25T16:54:06.130Z,100752.16
2018-04-25T16:56:34.420Z,100750.52
2018-04-25T16:59:03.430Z,100745.02
2018-04-25T17:01:31.679Z,100751.92
2018-04-25T17:03:59.961Z,100749.66
2018-04-25T17:06:28.220Z,100756.95
2018-04-25T17:08:56.468Z,100757.21
2018-04-25T17:11:25.514Z,100761.22
2018-04-25T17:13:53.759Z,100761.31
2018-04-25T17:16:22.802Z,100763.94
2018-04-25T17:18:51.069Z,100761.34
2018-04-25T17:21:20.093Z,100761.90
2018-04-25T17:23:48.364Z,100756.23
2018-04-25T17:26:17.459Z,100753.69
2018-04-25T17:28:46.527Z,100756.91
2018-04-25T17:31:14.833Z,100754.50
2018-04-25T17:33:43.104Z,100758.25
2018-04-25T17:36:11.433Z,100752.80
2018-04-25T17:38:39.611Z,100747.69
2018-04-25T17:41:07.895Z,100748.76
2018-04-25T17:43:36.167Z,100754.37
2018-04-25T17:46:04.550Z,100755.48
2018-04-25T17:48:32.819Z,100758.64
2018-04-25T17:51:01.081Z,100758.87
2018-04-25T17:53:30.117Z,100757.99
2018-04-25T17:55:59.892Z,100753.84
2018-04-25T17:58:28.157Z,100755.16
2018-04-25T18:00:56.417Z,100758.11
2018-04-25T18:03:24.786Z,100753.81
2018-04-25T18:05:53.722Z,100749.26
2018-04-25T18:08:21.975Z,100747.78
2018-04-25T18:10:50.253Z,100755.02
2018-04-25T18:13:18.534Z,100760.80
2018-04-25T18:15:46.800Z,100766.77
2018-04-25T18:18:15.193Z,100763.83
2018-04-25T18:20:43.443Z,100766.24
2018-04-25T18:23:12.494Z,100763.68
2018-04-25T18:25:40.738Z,100764.61
2018-04-25T18:28:09.779Z,100768.23
2018-04-25T18:30:38.036Z,100767.77
2018-04-25T18:33:07.089Z,100772.73
2018-04-25T18:35:35.408Z,100772.97
2018-04-25T18:38:03.682Z,100776.73
2018-04-25T18:40:31.985Z,100782.45
2018-04-25T18:43:00.228Z,100782.43
2018-04-25T18:45:28.489Z,100785.69
2018-04-25T18:47:57.527Z,100785.25
2018-04-25T18:50:25.802Z,100785.03
2018-04-25T18:52:54.846Z,100792.97
2018-04-25T18:55:23.120Z,100797.92
2018-04-25T18:57:51.390Z,100793.16
2018-04-25T19:00:20.471Z,100787.25
2018-04-25T19:02:48.796Z,100787.90
2018-04-25T19:05:17.832Z,100792.23
2018-04-25T19:07:46.919Z,100797.07
2018-04-25T19:10:15.275Z,100800.55
2018-04-25T19:12:43.613Z,100802.81
2018-04-25T19:15:11.785Z,100804.45
2018-04-25T19:17:40.067Z,100804.88
2018-04-25T19:20:09.084Z,100815.70
2018-04-25T19:22:37.345Z,100818.73
2018-04-25T19:25:05.634Z,100809.17
2018-04-25T19:27:33.886Z,100817.98
2018-04-25T19:30:02.136Z,100827.00
2018-04-25T19:32:30.412Z,100830.94
2018-04-25T19:34:58.668Z,100833.03
2018-04-25T19:37:26.940Z,100831.34
2018-04-25T19:39:55.352Z,100825.03
2018-04-25T19:42:23.632Z,100833.41
2018-04-25T19:44:51.909Z,100837.05
2018-04-25T19:47:20.317Z,100844.19
2018-04-25T19:49:48.593Z,100840.00
2018-04-25T19:52:16.880Z,100847.23
2018-04-25T19:54:45.163Z,100845.29
2018-04-25T19:57:13.428Z,100855.30
2018-04-25T19:59:42.461Z,100862.38
2018-04-25T20:02:10.733Z,100864.45
2018-04-25T20:04:39.014Z,100859.93
2018-04-25T20:07:07.279Z,100859.09
2018-04-25T20:09:35.581Z,100865.76
2018-04-25T20:12:04.623Z,100873.02
2018-04-25T20:14:32.880Z,100877.52
2018-04-25T20:17:01.988Z,100875.24
2018-04-25T20:19:30.248Z,100878.47
2018-04-25T20:21:58.504Z,100881.59
2018-04-25T20:24:26.772Z,100883.81
2018-04-25T20:26:55.792Z,100880.54
2018-04-25T20:29:24.046Z,100887.95
2018-04-25T20:31:52.323Z,100889.71
2018-04-25T20:34:20.607Z,100891.36
2018-04-25T20:36:48.885Z,100891.53
2018-04-25T20:39:17.162Z,100897.98
2018-04-25T20:41:45.504Z,100902.26
2018-04-25T20:44:13.760Z,100898.77
2018-04-25T20:46:42.028Z,100898.84
2018-04-25T20:49:10.283Z,100899.20
2018-04-25T20:51:39.312Z,100911.91
2018-04-25T20:54:07.588Z,100914.60
2018-04-25T20:56:36.686Z,100911.25
2018-04-25T20:59:04.974Z,100900.90
2018-04-25T21:01:33.232Z,100904.73
2018-04-25T21:04:01.498Z,100907.14
2018-04-25T21:06:29.767Z,100904.48
2018-04-25T21:08:58.801Z,100900.36
2018-04-25T21:11:27.066Z,100899.64
2018-04-25T21:13:56.076Z,100906.02
2018-04-25T21:16:24.339Z,100902.70
2018-04-25T21:18:53.359Z,100910.98
2018-04-25T21:21:22.386Z,100901.63
2018-04-25T21:23:50.680Z,100906.62
2018-04-25T21:26:19.730Z,100903.96
2018-04-25T21:28:48.011Z,100908.53
2018-04-25T21:31:16.374Z,100911.47
2018-04-25T21:33:45.416Z,100915.95
2018-04-25T21:36:13.673Z,100912.69
2018-04-25T21:38:41.946Z,100913.36
2018-04-25T21:41:10.204Z,100913.59
2018-04-25T21:43:38.471Z,100918.53
2018-04-25T21:46:06.813Z,100917.48
2018-04-25T21:48:35.106Z,100915.95
2018-04-25T21:51:03.385Z,100919.09
2018-04-25T21:53:32.423Z,100921.83
2018-04-25T21:56:00.671Z,100919.36
2018-04-25T21:58:29.695Z,100924.16
2018-04-25T22:00:57.994Z,100919.05
2018-04-25T22:03:26.277Z,100918.69
2018-04-25T22:05:54.559Z,100915.39
2018-04-25T22:08:23.601Z,100916.36
2018-04-25T22:10:51.902Z,100921.72
2018-04-25T22:13:21.189Z,100927.51
2018-04-25T22:15:49.484Z,100926.84
2018-04-25T22:18:17.800Z,100931.69
2018-04-25T22:20:46.082Z,100930.88
2018-04-25T22:23:14.491Z,100936.66
2018-04-25T22:25:42.762Z,100929.29
2018-04-25T22:28:11.028Z,100935.13
2018-04-25T22:30:40.077Z,100936.52
2018-04-25T22:33:08.349Z,100944.39
2018-04-25T22:35:36.615Z,100948.87
2018-04-25T22:38:04.893Z,100943.91
2018-04-25T22:40:33.990Z,100946.63
2018-04-25T22:43:03.031Z,100938.52
2018-04-25T22:45:31.317Z,100944.64
2018-04-25T22:47:59.591Z,100940.85
2018-04-25T22:50:27.849Z,100947.31
2018-04-25T22:52:56.134Z,100939.13
2018-04-25T22:55:24.421Z,100948.73
2018-04-25T22:57:52.687Z,100947.81
2018-04-25T23:00:20.970Z,100944.02
2018-04-25T23:02:49.246Z,100940.56
2018-04-25T23:05:17.528Z,100936.28
2018-04-25T23:07:45.818Z,100941.22
2018-04-25T23:10:14.838Z,100935.23
2018-04-25T23:12:43.101Z,100933.22
2018-04-25T23:15:12.155Z,100938.05
2018-04-25T23:17:40.427Z,100937.36
2018-04-25T23:20:08.754Z,100937.81
2018-04-25T23:22:37.735Z,100944.47
2018-04-25T23:25:06.033Z,100940.20
2018-04-25T23:27:35.029Z,100937.27
2018-04-25T23:30:03.292Z,100942.53
2018-04-25T23:32:32.319Z,100940.38
2018-04-25T23:35:00.584Z,100947.25
2018-04-25T23:37:28.853Z,100942.16
2018-04-25T23:39:57.908Z,100942.17
2018-04-25T23:42:26.143Z,100939.34
2018-04-25T23:44:54.457Z,100940.21
2018-04-25T23:47:22.692Z,100937.18
2018-04-25T23:49:50.952Z,100934.69
2018-04-25T23:52:19.237Z,100936.86
2018-04-25T23:54:48.251Z,100932.95
2018-04-25T23:57:17.473Z,100929.22
2018-04-25T23:59:45.775Z,100929.33
